createdAt,value
2023-05-05T00:00:36.634Z,15.91
2023-05-05T00:01:36.589Z,15.91
2023-05-05T00:02:36.787Z,15.92
2023-05-05T00:03:36.645Z,15.90
2023-05-05T00:04:36.571Z,15.90
2023-05-05T00:05:36.551Z,15.90
2023-05-05T00:06:36.552Z,15.88
2023-05-05T00:07:36.542Z,15.90
2023-05-05T00:08:36.552Z,15.86
2023-05-05T00:09:36.544Z,15.82
2023-05-05T00:10:36.499Z,15.80
2023-05-05T00:11:36.499Z,15.79
2023-05-05T00:12:36.524Z,15.76
2023-05-05T00:13:36.461Z,15.75
2023-05-05T00:14:36.495Z,15.75
2023-05-05T00:15:36.452Z,15.72
2023-05-05T00:16:36.501Z,15.72
2023-05-05T00:17:36.432Z,15.68
2023-05-05T00:18:36.435Z,15.64
2023-05-05T00:19:36.417Z,15.61
2023-05-05T00:20:36.488Z,15.58
2023-05-05T00:21:36.411Z,15.58
2023-05-05T00:22:36.387Z,15.58
2023-05-05T00:23:36.367Z,15.59
2023-05-05T00:24:36.361Z,15.57
2023-05-05T00:25:36.367Z,15.57
2023-05-05T00:26:36.390Z,15.54
2023-05-05T00:27:37.415Z,15.52
2023-05-05T00:28:36.324Z,15.51
2023-05-05T00:29:36.313Z,15.47
2023-05-05T00:30:36.302Z,15.47
2023-05-05T00:31:36.349Z,15.49
2023-05-05T00:32:36.364Z,15.49
2023-05-05T00:33:36.253Z,15.46
2023-05-05T00:34:36.259Z,15.44
2023-05-05T00:35:36.262Z,15.46
2023-05-05T00:36:36.228Z,15.43
2023-05-05T00:37:36.229Z,15.42
2023-05-05T00:38:36.247Z,15.43
2023-05-05T00:39:36.181Z,15.40
2023-05-05T00:40:36.195Z,15.44
2023-05-05T00:41:36.167Z,15.43
2023-05-05T00:42:36.200Z,15.43
2023-05-05T00:43:36.146Z,15.42
2023-05-05T00:44:36.269Z,15.39
2023-05-05T00:45:36.126Z,15.39
2023-05-05T00:46:36.178Z,15.39
2023-05-05T00:47:36.134Z,15.37
2023-05-05T00:48:36.115Z,15.37
2023-05-05T00:49:36.155Z,15.37
2023-05-05T00:50:36.091Z,15.39
2023-05-05T00:51:36.074Z,15.40
2023-05-05T00:52:36.087Z,15.42
2023-05-05T00:53:36.037Z,15.42
2023-05-05T00:54:36.065Z,15.42
2023-05-05T00:55:36.038Z,15.43
2023-05-05T00:56:36.014Z,15.46
2023-05-05T00:57:36.000Z,15.46
2023-05-05T00:58:36.010Z,15.44
2023-05-05T00:59:35.993Z,15.44
2023-05-05T01:00:35.972Z,15.46
2023-05-05T01:01:36.050Z,15.42
2023-05-05T01:02:36.744Z,15.43
2023-05-05T01:03:36.053Z,15.40
2023-05-05T01:04:35.948Z,15.40
2023-05-05T01:05:35.925Z,15.37
2023-05-05T01:06:35.918Z,15.39
2023-05-05T01:07:35.908Z,15.40
2023-05-05T01:08:35.887Z,15.39
2023-05-05T01:09:35.882Z,15.43
2023-05-05T01:10:35.870Z,15.43
2023-05-05T01:11:35.866Z,15.43
2023-05-05T01:12:35.913Z,15.40
2023-05-05T01:13:35.836Z,15.42
2023-05-05T01:14:35.840Z,15.40
2023-05-05T01:15:35.806Z,15.39
2023-05-05T01:16:35.926Z,15.39
2023-05-05T01:17:35.828Z,15.37
2023-05-05T01:18:35.817Z,15.39
2023-05-05T01:19:35.789Z,15.37
2023-05-05T01:20:35.756Z,15.36
2023-05-05T01:21:35.758Z,15.35
2023-05-05T01:22:35.726Z,15.37
2023-05-05T01:23:35.820Z,15.36
2023-05-05T01:24:35.728Z,15.33
2023-05-05T01:25:35.721Z,15.35
2023-05-05T01:26:35.697Z,15.31
2023-05-05T01:27:35.692Z,15.28
2023-05-05T01:28:35.650Z,15.28
2023-05-05T01:29:35.670Z,15.28
2023-05-05T06:00:44.871Z,15.33
2023-05-05T06:01:45.830Z,15.33
2023-05-05T06:02:45.903Z,15.37
2023-05-05T06:03:45.955Z,15.36
2023-05-05T06:04:45.798Z,15.40
2023-05-05T06:05:45.818Z,15.40
2023-05-05T06:06:45.786Z,15.44
2023-05-05T06:07:45.765Z,15.44
2023-05-05T06:08:45.729Z,15.44
2023-05-05T06:09:45.749Z,15.47
2023-05-05T06:10:45.739Z,15.52
2023-05-05T06:11:45.743Z,15.55
2023-05-05T06:12:45.764Z,15.58
2023-05-05T06:13:45.696Z,15.57
2023-05-05T06:14:45.668Z,15.61
2023-05-05T06:15:45.712Z,15.61
2023-05-05T06:16:45.660Z,15.61
2023-05-05T06:17:45.655Z,15.62
2023-05-05T06:18:45.672Z,15.65
2023-05-05T06:19:45.627Z,15.64
2023-05-05T06:20:45.618Z,15.65
2023-05-05T06:21:45.606Z,15.68
2023-05-05T06:22:45.609Z,15.68
2023-05-05T06:23:45.583Z,15.73
2023-05-05T06:24:45.579Z,15.72
2023-05-05T06:25:45.555Z,15.75
2023-05-05T06:26:45.550Z,15.77
2023-05-05T06:27:45.549Z,15.82
2023-05-05T06:28:45.522Z,15.84
2023-05-05T06:29:45.522Z,15.86
2023-05-05T06:30:45.518Z,15.88
2023-05-05T06:31:45.553Z,15.90
2023-05-05T06:32:45.550Z,15.92
2023-05-05T06:33:45.488Z,15.95
2023-05-05T06:34:45.463Z,15.97
2023-05-05T06:35:45.462Z,15.97
2023-05-05T06:36:45.495Z,16.01
2023-05-05T06:37:45.451Z,16.02
2023-05-05T06:38:45.419Z,16.05
2023-05-05T06:39:45.419Z,16.08
2023-05-05T06:40:45.397Z,16.12
2023-05-05T06:41:45.396Z,16.13
2023-05-05T06:42:45.394Z,16.16
2023-05-05T06:43:45.380Z,16.20
2023-05-05T06:44:45.352Z,16.24
2023-05-05T06:45:45.348Z,16.26
2023-05-05T06:46:45.341Z,16.28
2023-05-05T06:47:45.350Z,16.32
2023-05-05T06:48:45.332Z,16.32
2023-05-05T06:49:45.320Z,16.38
2023-05-05T06:50:45.287Z,16.38
2023-05-05T06:51:45.294Z,16.39
2023-05-05T06:52:45.256Z,16.41
2023-05-05T06:53:45.278Z,16.43
2023-05-05T06:54:45.280Z,16.43
2023-05-05T06:55:45.277Z,16.46
2023-05-05T06:56:45.319Z,16.49
2023-05-05T06:57:45.245Z,16.49
2023-05-05T06:58:45.211Z,16.51
2023-05-05T06:59:45.204Z,16.56
2023-05-05T07:00:45.211Z,16.56
2023-05-05T07:01:45.208Z,16.58
2023-05-05T07:02:45.173Z,16.58
2023-05-05T07:03:45.282Z,16.60
2023-05-05T07:04:45.136Z,16.61
2023-05-05T07:05:45.145Z,16.60
2023-05-05T07:06:45.124Z,16.66
2023-05-05T07:07:45.129Z,16.65
2023-05-05T07:08:45.102Z,16.68
2023-05-05T07:09:45.115Z,16.69
2023-05-05T07:10:45.073Z,16.71
2023-05-05T07:11:45.076Z,16.72
2023-05-05T07:12:45.107Z,16.75
2023-05-05T07:13:45.081Z,16.78
2023-05-05T07:14:45.026Z,16.79
2023-05-05T07:15:45.039Z,16.83
2023-05-05T07:16:45.016Z,16.83
2023-05-05T07:17:45.031Z,16.87
2023-05-05T07:18:45.014Z,16.90
2023-05-05T07:19:45.033Z,16.93
2023-05-05T07:20:45.001Z,16.96
2023-05-05T07:22:44.947Z,17.01
2023-05-05T07:23:44.954Z,17.05
2023-05-05T07:24:44.969Z,17.08
2023-05-05T07:25:44.933Z,17.09
2023-05-05T07:26:44.909Z,17.12
2023-05-05T07:27:44.898Z,17.19
2023-05-05T07:28:44.897Z,17.22
2023-05-05T07:29:44.878Z,17.23
2023-05-05T07:30:44.873Z,17.24
2023-05-05T07:31:44.904Z,17.29
2023-05-05T07:32:44.868Z,17.31
2023-05-05T07:33:44.889Z,17.36
2023-05-05T07:34:44.813Z,17.38
2023-05-05T07:35:44.817Z,17.42
2023-05-05T07:36:44.818Z,17.44
2023-05-05T07:37:44.818Z,17.48
2023-05-05T07:38:44.781Z,17.52
2023-05-05T07:39:44.780Z,17.56
2023-05-05T07:40:44.741Z,17.56
2023-05-05T07:41:44.768Z,17.59
2023-05-05T07:42:44.762Z,17.60
2023-05-05T07:43:44.862Z,17.67
2023-05-05T07:44:44.723Z,17.70
2023-05-05T07:45:44.737Z,17.71
2023-05-05T07:46:44.690Z,17.72
2023-05-05T07:47:44.724Z,17.78
2023-05-05T07:48:44.727Z,17.79
2023-05-05T07:49:44.701Z,17.85
2023-05-05T07:50:44.650Z,17.87
2023-05-05T07:51:44.638Z,17.90
2023-05-05T07:52:50.007Z,17.92
2023-05-05T07:53:44.624Z,17.97
2023-05-05T07:54:44.650Z,18.00
2023-05-05T07:55:44.587Z,18.04
2023-05-05T07:56:44.617Z,18.07
2023-05-05T07:57:44.574Z,18.13
2023-05-05T07:58:44.592Z,18.15
2023-05-05T07:59:44.570Z,18.20
2023-05-05T08:00:44.638Z,18.23
2023-05-05T08:01:44.581Z,18.23
2023-05-05T08:02:44.610Z,18.28
2023-05-05T08:03:44.599Z,18.31
2023-05-05T08:04:44.642Z,18.33
2023-05-05T08:05:44.521Z,18.38
2023-05-05T08:06:44.481Z,18.41
2023-05-05T08:07:44.465Z,18.43
2023-05-05T08:08:44.455Z,18.49
2023-05-05T08:09:44.441Z,18.52
2023-05-05T08:10:44.455Z,18.53
2023-05-05T08:11:44.453Z,18.56
2023-05-05T08:12:44.443Z,18.58
2023-05-05T08:13:44.393Z,18.59
2023-05-05T08:14:44.418Z,18.62
2023-05-05T08:15:44.412Z,18.62
2023-05-05T08:16:44.421Z,18.63
2023-05-05T08:17:44.386Z,18.66
2023-05-05T08:18:44.355Z,18.68
2023-05-05T08:19:44.347Z,18.68
2023-05-05T08:20:44.335Z,18.70
2023-05-05T08:21:44.299Z,18.71
2023-05-05T08:22:44.376Z,18.70
2023-05-05T08:23:44.316Z,18.73
2023-05-05T08:24:44.314Z,18.77
2023-05-05T08:25:44.286Z,18.80
2023-05-05T08:26:44.275Z,18.83
2023-05-05T08:27:44.253Z,18.83
2023-05-05T08:28:44.266Z,18.83
2023-05-05T08:29:44.221Z,18.86
2023-05-05T08:30:44.234Z,18.88
2023-05-05T08:31:44.272Z,18.89
2023-05-05T08:32:44.245Z,18.92
2023-05-05T08:33:44.181Z,18.93
2023-05-05T08:34:44.224Z,18.93
2023-05-05T08:35:44.167Z,18.98
2023-05-05T08:36:44.193Z,19.02
2023-05-05T08:37:44.149Z,19.02
2023-05-05T08:38:44.153Z,19.07
2023-05-05T08:39:44.164Z,19.11
2023-05-05T08:40:44.181Z,19.14
2023-05-05T08:41:44.111Z,19.18
2023-05-05T08:42:44.106Z,19.18
2023-05-05T08:43:44.086Z,19.22
2023-05-05T08:44:44.078Z,19.26
2023-05-05T08:45:44.062Z,19.27
2023-05-05T08:46:44.132Z,19.31
2023-05-05T08:47:44.058Z,19.34
2023-05-05T08:48:44.043Z,19.37
2023-05-05T08:49:44.014Z,19.40
2023-05-05T08:50:44.014Z,19.40
2023-05-05T08:51:44.013Z,19.47
2023-05-05T08:52:44.706Z,19.47
2023-05-05T08:53:43.964Z,19.49
2023-05-05T08:54:43.984Z,19.52
2023-05-05T08:55:43.956Z,19.55
2023-05-05T08:56:43.969Z,19.54
2023-05-05T08:57:43.925Z,19.58
2023-05-05T08:58:43.940Z,19.58
2023-05-05T08:59:43.895Z,19.62
2023-05-05T09:00:43.923Z,19.66
2023-05-05T09:01:43.881Z,19.66
2023-05-05T09:02:44.034Z,19.67
2023-05-05T09:03:43.862Z,19.73
2023-05-05T09:04:43.895Z,19.76
2023-05-05T09:05:43.840Z,19.77
2023-05-05T09:06:43.856Z,19.79
2023-05-05T09:07:43.820Z,19.84
2023-05-05T09:08:43.835Z,19.85
2023-05-05T09:09:43.798Z,19.86
2023-05-05T09:10:43.827Z,19.88
2023-05-05T09:11:43.791Z,19.89
2023-05-05T09:12:43.831Z,19.94
2023-05-05T09:13:43.785Z,19.96
2023-05-05T09:14:43.772Z,20.00
2023-05-05T09:15:43.730Z,20.03
2023-05-05T09:16:43.783Z,20.03
2023-05-05T09:17:43.805Z,20.07
2023-05-05T09:18:43.715Z,20.07
2023-05-05T09:19:43.687Z,20.14
2023-05-05T09:20:43.706Z,20.16
2023-05-05T09:21:43.685Z,20.21
2023-05-05T09:22:43.692Z,20.24
2023-05-05T09:23:43.659Z,20.24
2023-05-05T09:24:43.659Z,20.26
2023-05-05T09:25:43.646Z,20.28
2023-05-05T09:26:43.635Z,20.32
2023-05-05T09:27:43.654Z,20.36
2023-05-05T09:28:43.629Z,20.40
2023-05-05T09:29:43.586Z,20.40
2023-05-05T09:30:43.652Z,20.44
2023-05-05T09:31:43.567Z,20.48
2023-05-05T09:32:43.592Z,20.51
2023-05-05T09:33:43.586Z,20.55
2023-05-05T09:34:43.560Z,20.56
2023-05-05T09:35:43.525Z,20.59
2023-05-05T09:36:43.544Z,20.60
2023-05-05T09:37:43.508Z,20.65
2023-05-05T09:38:43.514Z,20.63
2023-05-05T09:39:43.518Z,20.65
2023-05-05T09:40:43.506Z,20.65
2023-05-05T09:41:43.471Z,20.66
2023-05-05T09:42:43.481Z,20.70
2023-05-05T09:43:43.430Z,20.70
2023-05-05T09:44:43.444Z,20.70
2023-05-05T09:45:43.462Z,20.74
2023-05-05T09:46:43.503Z,20.78
2023-05-05T09:47:43.421Z,20.81
2023-05-05T09:48:43.400Z,20.82
2023-05-05T09:49:43.382Z,20.82
2023-05-05T09:50:43.397Z,20.87
2023-05-05T09:51:43.369Z,20.88
2023-05-05T09:52:43.375Z,20.93
2023-05-05T09:53:43.345Z,20.96
2023-05-05T09:54:43.349Z,20.97
2023-05-05T09:55:43.321Z,21.00
2023-05-05T09:56:43.325Z,21.03
2023-05-05T09:57:43.282Z,21.07
2023-05-05T09:58:43.349Z,21.09
2023-05-05T09:59:43.258Z,21.14
2023-05-05T10:00:43.261Z,21.15
2023-05-05T10:01:43.375Z,21.20
2023-05-05T10:02:43.291Z,21.22
2023-05-05T10:03:43.216Z,21.25
2023-05-05T10:04:43.283Z,21.32
2023-05-05T10:05:43.206Z,21.36
2023-05-05T10:06:43.200Z,21.40
2023-05-05T10:07:43.247Z,21.42
2023-05-05T10:08:43.192Z,21.48
2023-05-05T10:09:43.182Z,21.51
2023-05-05T10:10:43.153Z,21.55
2023-05-05T10:11:43.154Z,21.60
2023-05-05T10:12:43.196Z,21.61
2023-05-05T10:13:43.152Z,21.66
2023-05-05T10:14:43.121Z,21.70
2023-05-05T10:15:43.126Z,21.72
2023-05-05T10:16:43.144Z,21.76
2023-05-05T10:17:50.967Z,21.82
2023-05-05T10:18:43.092Z,21.85
2023-05-05T10:19:43.120Z,21.95
2023-05-05T10:20:43.041Z,21.98
2023-05-05T10:21:43.043Z,22.02
2023-05-05T10:22:43.031Z,22.10
2023-05-05T10:23:43.005Z,22.13
2023-05-05T10:24:43.054Z,22.17
2023-05-05T10:25:42.993Z,22.20
2023-05-05T10:26:43.004Z,22.26
2023-05-05T10:27:42.971Z,22.30
2023-05-05T10:28:42.969Z,22.32
2023-05-05T10:29:42.952Z,22.35
2023-05-05T10:30:42.993Z,22.41
2023-05-05T10:31:42.965Z,22.44
2023-05-05T10:33:42.942Z,22.57
2023-05-05T10:34:42.947Z,22.62
2023-05-05T10:35:42.884Z,22.66
2023-05-05T10:36:42.900Z,22.73
2023-05-05T10:37:42.852Z,22.80
2023-05-05T10:38:42.876Z,22.84
2023-05-05T10:39:42.846Z,22.93
2023-05-05T10:40:42.867Z,22.99
2023-05-05T10:41:42.833Z,23.00
2023-05-05T10:42:42.839Z,23.03
2023-05-05T10:43:42.809Z,23.09
2023-05-05T10:44:42.806Z,23.12
2023-05-05T10:45:42.902Z,23.13
2023-05-05T10:46:42.899Z,23.12
2023-05-05T10:47:42.805Z,23.12
2023-05-05T10:48:42.855Z,23.18
2023-05-05T10:49:42.729Z,23.20
2023-05-05T10:50:42.754Z,23.18
2023-05-05T10:51:42.714Z,23.20
2023-05-05T10:52:42.737Z,23.24
2023-05-05T10:53:42.737Z,23.28
2023-05-05T10:54:42.748Z,23.34
2023-05-05T10:55:42.675Z,23.40
2023-05-05T10:56:42.697Z,23.44
2023-05-05T10:57:42.735Z,23.48
2023-05-05T10:58:58.398Z,23.51
2023-05-05T10:59:42.659Z,23.54
2023-05-05T11:00:42.672Z,23.55
2023-05-05T11:01:42.626Z,23.56
2023-05-05T11:02:42.645Z,23.61
2023-05-05T11:03:42.621Z,23.61
2023-05-05T11:04:42.596Z,23.62
2023-05-05T11:05:42.578Z,23.65
2023-05-05T11:06:42.595Z,23.69
2023-05-05T11:07:42.534Z,23.76
2023-05-05T11:08:42.576Z,23.80
2023-05-05T11:09:42.535Z,23.84
2023-05-05T11:10:42.555Z,23.92
2023-05-05T11:11:42.516Z,23.95
2023-05-05T11:12:42.560Z,23.99
2023-05-05T11:13:42.494Z,24.02
2023-05-05T11:14:42.485Z,24.03
2023-05-05T11:15:42.482Z,24.06
2023-05-05T11:16:42.589Z,24.05
2023-05-05T11:17:42.462Z,24.10
2023-05-05T11:18:42.442Z,24.11
2023-05-05T11:19:42.421Z,24.16
2023-05-05T11:20:42.423Z,24.18
2023-05-05T11:21:42.406Z,24.23
2023-05-05T11:22:42.431Z,24.24
2023-05-05T11:23:42.396Z,24.24
2023-05-05T11:24:42.390Z,24.29
2023-05-05T11:25:42.375Z,24.32
2023-05-05T11:26:42.405Z,24.33
2023-05-05T11:27:42.341Z,24.36
2023-05-05T11:28:42.356Z,24.39
2023-05-05T11:29:42.317Z,24.40
2023-05-05T11:30:42.375Z,24.42
2023-05-05T11:31:42.340Z,24.45
2023-05-05T11:32:42.359Z,24.45
2023-05-05T11:33:42.275Z,24.45
2023-05-05T11:34:42.327Z,24.47
2023-05-05T11:35:42.257Z,24.48
2023-05-05T11:36:42.253Z,24.53
2023-05-05T11:37:42.241Z,24.55
2023-05-05T11:38:42.264Z,24.60
2023-05-05T11:39:42.221Z,24.65
2023-05-05T11:40:42.274Z,24.70
2023-05-05T11:41:42.183Z,24.74
2023-05-05T11:42:42.198Z,24.80
2023-05-05T11:43:42.170Z,24.91
2023-05-05T11:44:42.180Z,24.95
2023-05-05T11:45:42.149Z,25.04
2023-05-05T11:46:42.300Z,25.11
2023-05-05T11:47:42.138Z,25.18
2023-05-05T11:48:42.137Z,25.28
2023-05-05T11:49:42.111Z,25.36
2023-05-05T11:50:42.117Z,25.38
2023-05-05T11:51:42.104Z,25.46
2023-05-05T11:52:42.119Z,25.48
2023-05-05T11:53:42.071Z,25.50
2023-05-05T11:54:42.065Z,25.55
2023-05-05T11:55:42.042Z,25.55
2023-05-05T11:56:42.048Z,25.60
2023-05-05T11:57:42.014Z,25.65
2023-05-05T11:58:42.026Z,25.63
2023-05-05T11:59:41.995Z,25.62
2023-05-05T12:00:42.008Z,25.59
2023-05-05T12:01:41.987Z,25.58
2023-05-05T12:02:42.113Z,25.59
2023-05-05T12:03:42.147Z,25.62
2023-05-05T12:04:42.016Z,25.59
2023-05-05T12:05:41.946Z,25.59
2023-05-05T12:06:41.925Z,25.59
2023-05-05T12:07:41.925Z,25.58
2023-05-05T12:08:41.934Z,25.62
2023-05-05T12:09:41.895Z,25.66
2023-05-05T12:10:41.897Z,25.68
2023-05-05T12:11:41.870Z,25.70
2023-05-05T12:12:41.866Z,25.73
2023-05-05T12:13:41.871Z,25.81
2023-05-05T12:14:41.865Z,25.87
2023-05-05T12:15:41.846Z,25.95
2023-05-05T12:16:41.954Z,26.07
2023-05-05T12:17:41.885Z,26.22
2023-05-05T12:18:41.799Z,26.28
2023-05-05T12:19:41.851Z,26.34
2023-05-05T12:20:41.771Z,26.36
2023-05-05T12:21:41.771Z,26.37
2023-05-05T12:22:41.756Z,26.41
2023-05-05T12:23:41.751Z,26.45
2023-05-05T12:24:41.737Z,26.52
2023-05-05T12:25:41.761Z,26.55
2023-05-05T12:26:41.718Z,26.53
2023-05-05T12:27:41.716Z,26.58
2023-05-05T12:28:41.701Z,26.58
2023-05-05T12:29:41.701Z,26.60
2023-05-05T12:30:41.791Z,26.63
2023-05-05T12:31:41.781Z,26.70
2023-05-05T12:32:41.695Z,26.75
2023-05-05T12:33:41.650Z,26.80
2023-05-05T12:34:41.631Z,26.81
2023-05-05T12:35:41.643Z,26.89
2023-05-05T12:36:41.615Z,26.95
2023-05-05T12:37:41.663Z,27.07
2023-05-05T12:38:41.584Z,27.10
2023-05-05T12:39:41.627Z,27.15
2023-05-05T12:40:41.568Z,27.20
2023-05-05T12:41:41.573Z,27.26
2023-05-05T12:42:41.566Z,27.21
2023-05-05T12:43:41.554Z,27.18
2023-05-05T12:44:41.523Z,27.20
2023-05-05T12:45:41.557Z,27.21
2023-05-05T12:46:41.500Z,27.22
2023-05-05T12:47:41.569Z,27.22
2023-05-05T12:48:41.537Z,27.29
2023-05-05T12:49:41.477Z,27.35
2023-05-05T12:50:41.475Z,27.42
2023-05-05T12:51:41.461Z,27.45
2023-05-05T12:52:41.430Z,27.48
2023-05-05T12:53:41.441Z,27.52
2023-05-05T12:54:41.440Z,27.60
2023-05-05T12:55:41.435Z,27.68
2023-05-05T12:56:41.411Z,27.70
2023-05-05T12:57:41.402Z,27.70
2023-05-05T12:58:41.389Z,27.68
2023-05-05T12:59:41.403Z,27.60
2023-05-05T13:00:41.402Z,27.63
2023-05-05T13:01:41.410Z,27.64
2023-05-05T13:02:41.432Z,27.71
2023-05-05T13:03:41.357Z,27.75
2023-05-05T13:04:41.320Z,27.77
2023-05-05T13:05:41.316Z,27.85
2023-05-05T13:06:41.315Z,27.89
2023-05-05T13:07:41.405Z,27.92
2023-05-05T13:08:41.271Z,28.01
2023-05-05T13:09:41.282Z,28.10
2023-05-05T13:10:41.251Z,28.11
2023-05-05T13:11:41.250Z,28.17
2023-05-05T13:12:41.286Z,28.20
2023-05-05T13:13:41.239Z,28.23
2023-05-05T13:14:41.215Z,28.22
2023-05-05T13:15:41.271Z,28.22
2023-05-05T13:16:41.188Z,28.20
2023-05-05T13:17:41.226Z,28.20
2023-05-05T13:18:41.192Z,28.19
2023-05-05T13:19:41.181Z,28.14
2023-05-05T13:20:41.179Z,28.08
2023-05-05T13:21:41.153Z,28.07
2023-05-05T13:22:41.127Z,28.12
2023-05-05T13:23:41.125Z,28.19
2023-05-05T13:24:51.473Z,28.22
2023-05-05T13:25:41.125Z,28.35
2023-05-05T13:26:41.083Z,28.42
2023-05-05T13:27:41.099Z,28.45
2023-05-05T13:28:41.083Z,28.49
2023-05-05T13:29:41.083Z,28.57
2023-05-05T13:30:41.064Z,28.62
2023-05-05T13:31:41.148Z,28.63
2023-05-05T13:32:41.070Z,28.66
2023-05-05T13:33:41.020Z,28.67
2023-05-05T13:34:41.028Z,28.70
2023-05-05T13:35:41.042Z,28.75
2023-05-05T13:36:41.002Z,28.79
2023-05-05T13:37:41.000Z,28.76
2023-05-05T13:38:40.962Z,28.74
2023-05-05T13:39:40.961Z,28.69
2023-05-05T13:40:40.951Z,28.67
2023-05-05T13:41:40.979Z,28.63
2023-05-05T13:42:40.929Z,28.63
2023-05-05T13:43:40.933Z,28.60
2023-05-05T13:44:40.891Z,28.54
2023-05-05T13:45:42.001Z,28.51
2023-05-05T13:46:40.882Z,28.45
2023-05-05T13:47:41.026Z,28.44
2023-05-05T13:48:40.868Z,28.26
2023-05-05T13:49:40.864Z,28.20
2023-05-05T13:50:40.831Z,28.17
2023-05-05T13:51:40.863Z,28.20
2023-05-05T13:52:40.821Z,28.22
2023-05-05T13:53:40.880Z,28.27
2023-05-05T13:54:40.820Z,28.32
2023-05-05T13:55:40.817Z,28.38
2023-05-05T13:56:40.792Z,28.41
2023-05-05T13:57:40.771Z,28.38
2023-05-05T13:58:40.754Z,28.39
2023-05-05T13:59:40.809Z,28.39
2023-05-05T14:00:40.844Z,28.35
2023-05-05T14:01:40.769Z,28.29
2023-05-05T14:02:40.743Z,28.26
2023-05-05T14:03:40.743Z,28.29
2023-05-05T14:04:40.709Z,28.30
2023-05-05T14:05:40.693Z,28.38
2023-05-05T14:06:40.689Z,28.42
2023-05-05T14:07:40.695Z,28.49
2023-05-05T14:08:40.649Z,28.57
2023-05-05T14:09:40.638Z,28.62
2023-05-05T14:10:40.688Z,28.63
2023-05-05T14:11:40.658Z,28.64
2023-05-05T14:12:40.634Z,28.64
2023-05-05T14:13:40.632Z,28.63
2023-05-05T14:14:40.571Z,28.62
2023-05-05T14:15:40.598Z,28.63
2023-05-05T14:16:40.643Z,28.59
2023-05-05T14:17:40.658Z,28.56
2023-05-05T14:18:40.563Z,28.54
2023-05-05T14:19:40.559Z,28.52
2023-05-05T14:20:40.515Z,28.48
2023-05-05T14:21:40.532Z,28.48
2023-05-05T14:22:40.504Z,28.44
2023-05-05T14:23:40.551Z,28.41
2023-05-05T14:24:40.494Z,28.37
2023-05-05T14:25:40.478Z,28.32
2023-05-05T14:26:40.478Z,28.23
2023-05-05T14:27:40.479Z,28.12
2023-05-05T14:28:40.454Z,28.08
2023-05-05T14:29:40.504Z,28.01
2023-05-05T14:30:40.429Z,27.93
2023-05-05T14:31:40.491Z,27.92
2023-05-05T14:32:40.454Z,27.87
2023-05-05T14:33:40.414Z,27.89
2023-05-05T14:34:40.367Z,27.87
2023-05-05T14:35:40.394Z,27.87
2023-05-05T14:36:40.384Z,27.85
2023-05-05T14:37:40.382Z,27.86
2023-05-05T14:38:40.400Z,27.85
2023-05-05T14:39:40.350Z,27.78
2023-05-05T14:40:40.305Z,27.73
2023-05-05T14:41:40.326Z,27.67
2023-05-05T14:42:40.328Z,27.65
2023-05-05T14:43:40.302Z,27.55
2023-05-05T14:44:40.479Z,27.51
2023-05-05T14:45:40.293Z,27.42
2023-05-05T14:46:40.251Z,27.29
2023-05-05T14:47:40.318Z,27.17
2023-05-05T14:48:40.254Z,27.03
2023-05-05T14:49:40.258Z,26.95
2023-05-05T14:50:40.201Z,26.80
2023-05-05T14:51:40.205Z,26.73
2023-05-05T14:52:40.224Z,26.65
2023-05-05T14:53:40.207Z,26.60
2023-05-05T14:54:40.214Z,26.59
2023-05-05T14:55:40.191Z,26.56
2023-05-05T14:56:40.139Z,26.52
2023-05-05T14:57:40.151Z,26.48
2023-05-05T14:58:40.172Z,26.47
2023-05-05T14:59:40.166Z,26.44
2023-05-05T15:00:40.159Z,26.41
2023-05-05T15:01:40.154Z,26.38
2023-05-05T15:02:40.341Z,26.31
2023-05-05T15:03:40.147Z,26.21
2023-05-05T15:04:40.067Z,26.10
2023-05-05T15:05:40.090Z,26.02
2023-05-05T15:06:40.062Z,25.96
2023-05-05T15:07:40.101Z,25.91
2023-05-05T15:08:40.012Z,25.85
2023-05-05T15:09:40.044Z,25.78
2023-05-05T15:10:40.019Z,25.73
2023-05-05T15:11:40.016Z,25.69
2023-05-05T15:12:40.074Z,25.62
2023-05-05T15:13:39.981Z,25.54
2023-05-05T15:14:39.966Z,25.50
2023-05-05T15:15:39.994Z,25.46
2023-05-05T15:16:40.137Z,25.40
2023-05-05T15:17:39.960Z,25.36
2023-05-05T15:18:39.951Z,25.31
2023-05-05T15:19:39.912Z,25.28
2023-05-05T15:20:39.892Z,25.22
2023-05-05T15:21:39.890Z,25.17
2023-05-05T15:22:39.875Z,25.13
2023-05-05T15:23:39.897Z,25.08
2023-05-05T15:24:39.875Z,25.03
2023-05-05T15:25:39.847Z,24.95
2023-05-05T15:26:39.815Z,24.86
2023-05-05T15:27:39.827Z,24.78
2023-05-05T15:28:39.819Z,24.70
2023-05-05T15:29:39.858Z,24.50
2023-05-05T15:30:39.812Z,24.17
2023-05-05T15:31:39.797Z,23.81
2023-05-05T15:32:39.765Z,23.48
2023-05-05T15:33:39.775Z,23.17
2023-05-05T15:34:39.747Z,22.96
2023-05-05T15:35:39.740Z,22.60
2023-05-05T15:36:39.778Z,22.25
2023-05-05T15:37:39.716Z,22.04
2023-05-05T15:38:39.698Z,21.89
2023-05-05T15:39:39.714Z,21.75
2023-05-05T15:40:39.692Z,21.52
2023-05-05T15:41:39.699Z,21.37
2023-05-05T15:42:39.698Z,21.27
2023-05-05T15:43:39.675Z,21.15
2023-05-05T15:44:39.626Z,21.11
2023-05-05T15:45:39.669Z,21.03
2023-05-05T15:46:39.741Z,20.96
2023-05-05T15:47:39.677Z,20.93
2023-05-05T15:48:39.640Z,20.90
2023-05-05T15:49:39.611Z,20.87
2023-05-05T15:50:39.562Z,20.87
2023-05-05T15:51:39.600Z,20.84
2023-05-05T15:52:39.561Z,20.84
2023-05-05T15:53:39.608Z,20.80
2023-05-05T15:54:39.541Z,20.80
2023-05-05T15:55:39.543Z,20.80
2023-05-05T15:56:39.500Z,20.75
2023-05-05T15:57:39.519Z,20.69
2023-05-05T15:58:39.476Z,20.67
2023-05-05T15:59:39.507Z,20.66
2023-05-05T16:00:39.457Z,20.65
2023-05-05T16:01:39.594Z,20.63
2023-05-05T16:02:39.474Z,20.63
2023-05-05T16:03:39.468Z,20.62
2023-05-05T16:04:39.437Z,20.60
2023-05-05T16:05:39.468Z,20.56
2023-05-05T16:06:39.400Z,20.52
2023-05-05T16:07:39.415Z,20.52
2023-05-05T16:08:39.403Z,20.48
2023-05-05T16:09:39.399Z,20.43
2023-05-05T16:10:39.363Z,20.41
2023-05-05T16:11:39.390Z,20.40
2023-05-05T16:12:39.386Z,20.37
2023-05-05T16:13:39.369Z,20.37
2023-05-05T16:14:39.318Z,20.37
2023-05-05T16:15:39.340Z,20.36
2023-05-05T16:16:39.364Z,20.36
2023-05-05T16:17:39.360Z,20.34
2023-05-05T16:18:39.275Z,20.28
2023-05-05T16:19:39.287Z,20.25
2023-05-05T16:20:39.260Z,20.24
2023-05-05T16:21:39.256Z,20.24
2023-05-05T16:22:39.244Z,20.21
2023-05-05T16:23:39.238Z,20.28
2023-05-05T16:24:39.421Z,20.28
2023-05-05T16:25:39.193Z,20.26
2023-05-05T16:26:39.209Z,20.28
2023-05-05T16:27:39.184Z,20.28
2023-05-05T16:28:39.248Z,20.31
2023-05-05T16:29:39.146Z,20.31
2023-05-05T16:30:39.180Z,20.32
2023-05-05T16:31:39.180Z,20.28
2023-05-05T16:32:39.207Z,20.26
2023-05-05T16:33:39.149Z,20.26
2023-05-05T16:34:39.136Z,20.24
2023-05-05T16:35:39.094Z,20.19
2023-05-05T16:36:39.104Z,20.18
2023-05-05T16:37:39.099Z,20.14
2023-05-05T16:38:39.086Z,20.14
2023-05-05T16:39:39.090Z,20.16
2023-05-05T16:40:39.292Z,20.14
2023-05-05T16:41:39.229Z,20.16
2023-05-05T16:42:39.018Z,20.14
2023-05-05T16:43:39.022Z,20.13
2023-05-05T16:44:39.016Z,20.11
2023-05-05T16:45:39.022Z,20.10
2023-05-05T16:46:39.088Z,20.13
2023-05-05T16:47:39.085Z,20.11
2023-05-05T16:48:38.978Z,20.13
2023-05-05T16:49:38.973Z,20.13
2023-05-05T16:50:39.013Z,20.13
2023-05-05T16:51:38.978Z,20.13
2023-05-05T16:52:38.944Z,20.18
2023-05-05T16:53:38.941Z,20.18
2023-05-05T16:54:38.913Z,20.21
2023-05-05T16:55:38.961Z,20.22
2023-05-05T16:56:38.896Z,20.22
2023-05-05T16:57:38.966Z,20.26
2023-05-05T16:58:38.871Z,20.28
2023-05-05T16:59:38.840Z,20.28
2023-05-05T17:00:38.836Z,20.29
2023-05-05T17:01:38.853Z,20.31
2023-05-05T17:02:38.871Z,20.29
2023-05-05T17:03:38.836Z,20.31
2023-05-05T17:04:38.788Z,20.31
2023-05-05T17:05:38.797Z,20.26
2023-05-05T17:06:38.785Z,20.25
2023-05-05T17:07:38.767Z,20.24
2023-05-05T17:08:38.777Z,20.22
2023-05-05T17:09:38.780Z,20.19
2023-05-05T17:10:38.737Z,20.18
2023-05-05T17:11:38.704Z,20.18
2023-05-05T17:12:38.735Z,20.16
2023-05-05T17:13:38.716Z,20.18
2023-05-05T17:14:38.682Z,20.16
2023-05-05T17:15:38.685Z,20.13
2023-05-05T17:16:38.886Z,20.10
2023-05-05T17:17:39.715Z,20.10
2023-05-05T17:18:38.648Z,20.11
2023-05-05T17:19:38.617Z,20.09
2023-05-05T17:20:38.663Z,20.07
2023-05-05T17:21:38.630Z,20.06
2023-05-05T17:22:38.664Z,20.07
2023-05-05T17:23:38.605Z,20.04
2023-05-05T17:24:38.579Z,20.06